• Join FlightAware (Why Join?)
  • Login
  • US Flag 
11:07AM EST


 

Airport Tracker/Info


-or-


 

Live Flight TrackerFlight Track Log ✈ N847NN ✈ 16-May-2012 ✈ KMIA - SKCL / CLO

Flight Track Log - Related Links

Times and Time Zones

All times are in EDT time to prevent confusion due to time zone crossing. See the N847NN flight status page for this flight to view local times or setup timezone preferences in your user account.

Time Position Orientation Groundspeed Altitude Reporting Facility
EDT Latitude Longitude Course Direction KTS MPH feet Rate Location/Type
04:47PM 25.7399 -80.2507 352° North  Level FlightAware Approximate
04:47PM 25.8006 -80.2606 148° Southeast 174 200 800  Level Miami Center
04:52PM 25.6175 -80.1358 214° Southwest 269 310 6,900 1,140 Climbing Miami Center
04:52PM 25.5644 -80.1758 155° Southeast 268 308 7,000 1,080 Climbing Miami Center
04:54PM 25.4881 -80.1369 145° Southeast 281 323 9,100 2,220 Climbing Miami Center
04:55PM 25.4222 -80.0867 158° South 286 329 11,700 2,460 Climbing Miami Center
04:56PM 25.3456 -80.0525 161° South 286 329 14,100 2,340 Climbing Miami Center
04:57PM 25.2606 -80.0206 161° South 298 343 16,400 2,220 Climbing Miami Center
04:58PM 25.1758 -79.9883 162° South 312 359 18,600 2,100 Climbing Miami Center
04:59PM 25.0886 -79.9564 161° South 323 372 20,600 1,860 Climbing Miami Center
05:00PM 24.9975 -79.9219 160° South 328 377 22,400 1,680 Climbing Miami Center
05:01PM 24.9186 -79.8903 162° South 335 386 24,000 1,620 Climbing Miami Center
05:02PM 24.8275 -79.8583 161° South 340 391 25,700 1,380 Climbing Miami Center
05:03PM 24.7319 -79.8217 151° Southeast 347 399 26,800 1,140 Climbing Miami Center
05:04PM 24.6411 -79.7669 150° Southeast 360 414 28,000 1,200 Climbing Miami Center
05:05PM 24.5483 -79.7075 151° Southeast 375 432 29,300 1,140 Climbing Miami Center
05:06PM 24.4511 -79.6483 163° South 386 444 30,300 600 Climbing Miami Center
05:07PM 24.3475 -79.6142 162° South 386 444 30,500 240 Climbing Miami Center
05:08PM 24.2311 -79.5728 163° South 410 472 30,800 300 Climbing Miami Center
05:09PM 24.1108 -79.5314 164° South 437 503 31,100 480 Climbing Miami Center
05:10PM 23.9839 -79.4903 163° South 461 531 31,800 660 Climbing Miami Center
05:17PM 23.1346 -79.2143 164° South  Level FlightAware Approximate
05:18PM 23.0187 -79.1786 164° South  Level FlightAware Approximate
05:19PM 22.9029 -79.1430 164° South  Level FlightAware Approximate
05:20PM 22.7871 -79.1074 164° South  Level FlightAware Approximate
05:21PM 22.6712 -79.0718 164° South  Level FlightAware Approximate
05:22PM 22.5553 -79.0363 164° South  Level FlightAware Approximate
05:23PM 22.4395 -79.0009 164° South  Level FlightAware Approximate
05:24PM 22.3236 -78.9656 164° South  Level FlightAware Approximate
05:25PM 22.2077 -78.9303 164° South  Level FlightAware Approximate
05:26PM 22.0918 -78.8950 164° South  Level FlightAware Approximate
05:27PM 21.9793 -78.8608 164° South  Level FlightAware Approximate
05:28PM 21.8667 -78.8267 164° South  Level FlightAware Approximate
05:29PM 21.7542 -78.7927 142° Southeast  Level FlightAware Approximate
05:30PM 21.6623 -78.7154 165° South  Level FlightAware Approximate
05:31PM 21.5494 -78.6826 165° South  Level FlightAware Approximate
05:32PM 21.4366 -78.6499 165° South  Level FlightAware Approximate
05:33PM 21.3237 -78.6172 165° South  Level FlightAware Approximate
05:34PM 21.2108 -78.5846 165° South  Level FlightAware Approximate
05:35PM 21.0979 -78.5520 165° South  Level FlightAware Approximate
05:36PM 20.9849 -78.5195 165° South  Level FlightAware Approximate
05:37PM 20.8720 -78.4870 165° South  Level FlightAware Approximate
05:38PM 20.7591 -78.4546 165° South  Level FlightAware Approximate
05:39PM 20.6462 -78.4222 165° South  Level FlightAware Approximate
05:40PM 20.5332 -78.3898 165° South  Level FlightAware Approximate
05:41PM 20.4203 -78.3576 165° South  Level FlightAware Approximate
05:42PM 20.3074 -78.3253 165° South  Level FlightAware Approximate
05:43PM 20.1944 -78.2931 165° South  Level FlightAware Approximate
05:44PM 20.0814 -78.2610 165° South  Level FlightAware Approximate
05:45PM 19.9685 -78.2289 164° South  Level FlightAware Approximate
05:46PM 19.8560 -78.1951 165° South  Level FlightAware Approximate
05:47PM 19.7430 -78.1633 165° South  Level FlightAware Approximate
05:48PM 19.6299 -78.1315 165° South  Level FlightAware Approximate
05:49PM 19.5169 -78.0998 165° South  Level FlightAware Approximate
05:50PM 19.4038 -78.0681 165° South  Level FlightAware Approximate
05:51PM 19.2908 -78.0365 165° South  Level FlightAware Approximate
05:52PM 19.1777 -78.0049 165° South  Level FlightAware Approximate
05:53PM 19.0647 -77.9734 165° South  Level FlightAware Approximate
05:54PM 18.9516 -77.9419 165° South  Level FlightAware Approximate
05:55PM 18.8385 -77.9105 165° South  Level FlightAware Approximate
05:56PM 18.7255 -77.8791 165° South  Level FlightAware Approximate
05:57PM 18.6124 -77.8477 165° South  Level FlightAware Approximate
05:58PM 18.4993 -77.8164 165° South  Level FlightAware Approximate
05:59PM 18.3862 -77.7851 165° South  Level FlightAware Approximate
06:00PM 18.2731 -77.7538 165° South  Level FlightAware Approximate
06:01PM 18.1600 -77.7226 165° South  Level FlightAware Approximate
06:02PM 18.0469 -77.6915 165° South  Level FlightAware Approximate
06:03PM 17.9338 -77.6604 165° South  Level FlightAware Approximate
06:04PM 17.8207 -77.6293 167° South  Level FlightAware Approximate
06:05PM 17.7092 -77.6025 173° South  Level FlightAware Approximate
06:06PM 17.5933 -77.5869 173° South  Level FlightAware Approximate
06:07PM 17.4773 -77.5712 173° South  Level FlightAware Approximate
06:08PM 17.3613 -77.5556 173° South  Level FlightAware Approximate
06:09PM 17.2453 -77.5400 173° South  Level FlightAware Approximate
06:10PM 17.1294 -77.5244 173° South  Level FlightAware Approximate
06:11PM 17.0134 -77.5089 173° South  Level FlightAware Approximate
06:12PM 16.8974 -77.4933 173° South  Level FlightAware Approximate
06:13PM 16.7815 -77.4778 173° South  Level FlightAware Approximate
06:14PM 16.6655 -77.4623 173° South  Level FlightAware Approximate
06:15PM 16.5495 -77.4468 173° South  Level FlightAware Approximate
06:16PM 16.4335 -77.4314 173° South  Level FlightAware Approximate
06:17PM 16.3175 -77.4159 173° South  Level FlightAware Approximate
06:18PM 16.2016 -77.4005 173° South  Level FlightAware Approximate
06:19PM 16.0856 -77.3851 173° South  Level FlightAware Approximate
06:20PM 15.9696 -77.3697 173° South  Level FlightAware Approximate
06:21PM 15.8536 -77.3543 173° South  Level FlightAware Approximate
06:22PM 15.7376 -77.3390 173° South  Level FlightAware Approximate
06:23PM 15.6216 -77.3236 173° South  Level FlightAware Approximate
06:24PM 15.5057 -77.3083 173° South  Level FlightAware Approximate
06:25PM 15.3897 -77.2930 173° South  Level FlightAware Approximate
06:26PM 15.2737 -77.2777 173° South  Level FlightAware Approximate
06:27PM 15.1577 -77.2624 174° South  Level FlightAware Approximate
06:28PM 15.0414 -77.2501 174° South  Level FlightAware Approximate
06:29PM 14.9251 -77.2377 174° South  Level FlightAware Approximate
06:30PM 14.8088 -77.2254 174° South  Level FlightAware Approximate
06:31PM 14.6924 -77.2131 174° South  Level FlightAware Approximate
06:32PM 14.5761 -77.2008 174° South  Level FlightAware Approximate
06:33PM 14.4598 -77.1885 174° South  Level FlightAware Approximate
06:34PM 14.3435 -77.1762 174° South  Level FlightAware Approximate
06:35PM 14.2272 -77.1639 174° South  Level FlightAware Approximate
06:36PM 14.1109 -77.1517 174° South  Level FlightAware Approximate
06:37PM 13.9946 -77.1394 174° South  Level FlightAware Approximate
06:38PM 13.8782 -77.1272 174° South  Level FlightAware Approximate
06:39PM 13.7619 -77.1150 174° South  Level FlightAware Approximate
06:40PM 13.6456 -77.1028 174° South  Level FlightAware Approximate
06:41PM 13.5293 -77.0906 174° South  Level FlightAware Approximate
06:42PM 13.4130 -77.0784 174° South  Level FlightAware Approximate
06:43PM 13.2966 -77.0662 174° South  Level FlightAware Approximate
06:44PM 13.1803 -77.0541 174° South  Level FlightAware Approximate
06:45PM 13.0640 -77.0419 174° South  Level FlightAware Approximate
06:46PM 12.9477 -77.0298 174° South  Level FlightAware Approximate
06:47PM 12.8314 -77.0177 174° South  Level FlightAware Approximate
06:48PM 12.7150 -77.0056 174° South  Level FlightAware Approximate
06:49PM 12.5987 -76.9935 174° South  Level FlightAware Approximate
06:50PM 12.4824 -76.9814 174° South  Level FlightAware Approximate
06:51PM 12.3661 -76.9693 174° South  Level FlightAware Approximate
06:52PM 12.2497 -76.9572 174° South  Level FlightAware Approximate
06:53PM 12.1334 -76.9452 174° South  Level FlightAware Approximate
06:54PM 12.0171 -76.9331 174° South  Level FlightAware Approximate
06:55PM 11.9008 -76.9211 174° South  Level FlightAware Approximate
06:56PM 11.7844 -76.9090 174° South  Level FlightAware Approximate
06:57PM 11.6681 -76.8970 174° South  Level FlightAware Approximate
06:58PM 11.5518 -76.8850 174° South  Level FlightAware Approximate
06:59PM 11.4354 -76.8730 174° South  Level FlightAware Approximate
07:00PM 11.3191 -76.8610 174° South  Level FlightAware Approximate
07:01PM 11.2028 -76.8491 174° South  Level FlightAware Approximate
07:02PM 11.0864 -76.8371 174° South  Level FlightAware Approximate
07:03PM 10.9701 -76.8251 174° South  Level FlightAware Approximate
07:04PM 10.8538 -76.8132 174° South  Level FlightAware Approximate
07:05PM 10.7374 -76.8012 174° South  Level FlightAware Approximate
07:06PM 10.6211 -76.7893 174° South  Level FlightAware Approximate
07:07PM 10.5048 -76.7774 174° South  Level FlightAware Approximate
07:08PM 10.3885 -76.7655 174° South  Level FlightAware Approximate
07:09PM 10.2721 -76.7536 174° South  Level FlightAware Approximate
07:10PM 10.1558 -76.7417 174° South  Level FlightAware Approximate
07:11PM 10.0395 -76.7298 174° South  Level FlightAware Approximate
07:12PM 9.9231 -76.7179 174° South  Level FlightAware Approximate
07:13PM 9.8068 -76.7060 174° South  Level FlightAware Approximate
07:14PM 9.6904 -76.6942 174° South  Level FlightAware Approximate
07:15PM 9.5741 -76.6823 175° South  Level FlightAware Approximate
07:16PM 9.4577 -76.6714 175° South  Level FlightAware Approximate
07:17PM 9.3413 -76.6605 175° South  Level FlightAware Approximate
07:18PM 9.2248 -76.6497 175° South  Level FlightAware Approximate
07:19PM 9.1084 -76.6388 175° South  Level FlightAware Approximate
07:20PM 8.9920 -76.6279 175° South  Level FlightAware Approximate
07:21PM 8.8755 -76.6170 175° South  Level FlightAware Approximate
07:22PM 8.7591 -76.6062 175° South  Level FlightAware Approximate
07:23PM 8.6427 -76.5954 175° South  Level FlightAware Approximate
07:24PM 8.5262 -76.5845 175° South  Level FlightAware Approximate
07:25PM 8.4098 -76.5737 175° South  Level FlightAware Approximate
07:26PM 8.2934 -76.5629 175° South  Level FlightAware Approximate
07:27PM 8.1770 -76.5520 177° South  Level FlightAware Approximate
07:28PM 8.0601 -76.5469 177° South  Level FlightAware Approximate
07:29PM 7.9433 -76.5417 177° South  Level FlightAware Approximate
07:30PM 7.8265 -76.5365 177° South  Level FlightAware Approximate
07:31PM 7.7097 -76.5313 177° South  Level FlightAware Approximate
07:32PM 7.5929 -76.5262 177° South  Level FlightAware Approximate
07:33PM 7.4761 -76.5210 177° South  Level FlightAware Approximate
07:34PM 7.3593 -76.5158 177° South  Level FlightAware Approximate
07:35PM 7.2425 -76.5106 177° South  Level FlightAware Approximate
07:36PM 7.1257 -76.5055 177° South  Level FlightAware Approximate
07:37PM 7.0089 -76.5003 177° South  Level FlightAware Approximate
07:38PM 6.8920 -76.4952 177° South  Level FlightAware Approximate
07:39PM 6.7752 -76.4900 177° South  Level FlightAware Approximate
07:40PM 6.6521 -76.4846 177° South  Level FlightAware Approximate
07:41PM 6.5290 -76.4791 177° South  Level FlightAware Approximate
07:42PM 6.4059 -76.4737 177° South  Level FlightAware Approximate
07:43PM 6.2828 -76.4683 177° South  Level FlightAware Approximate
07:44PM 6.1596 -76.4629 177° South  Level FlightAware Approximate
07:45PM 6.0365 -76.4575 177° South  Level FlightAware Approximate
07:46PM 5.9134 -76.4521 177° South  Level FlightAware Approximate
07:47PM 5.7903 -76.4466 177° South  Level FlightAware Approximate
07:48PM 5.6672 -76.4412 177° South  Level FlightAware Approximate
07:49PM 5.5440 -76.4358 177° South  Level FlightAware Approximate
07:50PM 5.4209 -76.4304 177° South  Level FlightAware Approximate
07:51PM 5.2978 -76.4250 177° South  Level FlightAware Approximate
07:52PM 5.1747 -76.4196 178° South  Level FlightAware Approximate
07:53PM 5.0515 -76.4142 178° South  Level FlightAware Approximate
07:54PM 4.9284 -76.4088 177° South  Level FlightAware Approximate
07:55PM 4.8053 -76.4034 178° South  Level FlightAware Approximate
07:56PM 4.6822 -76.3980 177° South  Level FlightAware Approximate
07:57PM 4.5591 -76.3926 178° South  Level FlightAware Approximate
07:58PM 4.4359 -76.3873 177° South  Level FlightAware Approximate
07:59PM 4.3128 -76.3819 178° South  Level FlightAware Approximate
08:00PM 4.1897 -76.3765 178° South  Level FlightAware Approximate